Main page
METAR-TAF:

METAR-TAF

Airports :

Naval Station Rota

Rota, Spain

latitude: 36-39N, longitude: 006-21W, elevation: 26 m

Current weather observation

The report was made 43 minutes ago, at 21:00 UTC
Calm wind
Temperature 9°C
Humidity 93%
Pressure 1026 hPa
Visibility 10 km or more
no clouds below 1500 m and no cumulonimbus

METAR: LERT 102100Z 00000KT CAVOK 09/08 Q1026 NOSIG

Time: 22:43 (21:43 UTC)

Forecast

The report was made 1 hour and 43 minutes ago, at 20:00 UTC
Forecast valid from 10 at 21 UTC to 11 at 06 UTC
Wind 6 kt from the Northwest
Visibility 10 km or more
no clouds below 1500 m and no cumulonimbus

TAF: LERT 102000Z 1021/1106 32006KT CAVOK

Weather observations and forecasts of more than 4000 airports (METAR and TAF reports).

The available stations are represented by yellow and red dots on the map.

Hover mouse over dot to see the name of the station.

Then click to see weather observations and forecasts.

To change the map : click on the green buttons with a black cross to zoom in, on the green button with a dash to zoom out, or on the green arrows for adjacent maps.


METAR-TAF: